createdAt,value
2018-05-17T00:01:22.195Z,11.37
2018-05-17T00:03:49.660Z,11.17
2018-05-17T00:06:17.105Z,9.83
2018-05-17T00:08:44.558Z,9.00
2018-05-17T00:11:12.023Z,9.40
2018-05-17T00:13:39.482Z,10.00
2018-05-17T00:16:06.932Z,9.63
2018-05-17T00:18:34.391Z,8.80
2018-05-17T00:21:01.850Z,8.47
2018-05-17T00:23:29.311Z,10.07
2018-05-17T00:25:56.760Z,8.33
2018-05-17T00:28:24.222Z,9.33
2018-05-17T00:30:51.690Z,9.83
2018-05-17T00:33:19.156Z,10.60
2018-05-17T00:35:46.700Z,9.80
2018-05-17T00:38:14.071Z,10.83
2018-05-17T00:40:41.524Z,11.70
2018-05-17T00:43:08.991Z,12.00
2018-05-17T00:45:36.459Z,11.10
2018-05-17T00:48:03.910Z,11.40
2018-05-17T00:50:31.355Z,10.37
2018-05-17T00:53:10.750Z,10.07
2018-05-17T00:55:38.206Z,9.83
2018-05-17T00:58:05.691Z,9.97
2018-05-17T01:00:33.125Z,10.53
2018-05-17T01:03:00.588Z,11.70
2018-05-17T01:05:28.055Z,11.60
2018-05-17T01:07:55.509Z,12.17
2018-05-17T01:10:22.973Z,11.97
2018-05-17T01:12:50.535Z,11.77
2018-05-17T01:15:17.919Z,11.53
2018-05-17T01:17:46.163Z,11.60
2018-05-17T01:20:13.623Z,11.30
2018-05-17T01:22:41.094Z,10.57
2018-05-17T01:25:08.547Z,13.40
2018-05-17T01:27:36.022Z,15.10
2018-05-17T01:30:03.479Z,15.43
2018-05-17T01:32:30.930Z,17.10
2018-05-17T01:34:58.436Z,18.33
2018-05-17T01:37:37.680Z,17.57
2018-05-17T01:40:05.129Z,15.47
2018-05-17T01:42:32.614Z,15.13
2018-05-17T01:45:00.122Z,14.83
2018-05-17T01:47:46.020Z,16.43
2018-05-17T01:50:13.488Z,18.27
2018-05-17T01:52:40.950Z,18.70
2018-05-17T01:55:08.405Z,20.57
2018-05-17T01:57:35.870Z,20.13
2018-05-17T02:00:03.321Z,19.87
2018-05-17T02:02:30.778Z,19.80
2018-05-17T02:04:58.236Z,17.97
2018-05-17T02:07:26.448Z,19.53
2018-05-17T02:09:53.903Z,21.10
2018-05-17T02:12:21.347Z,22.17
2018-05-17T02:14:48.816Z,24.37
2018-05-17T02:17:16.270Z,28.30
2018-05-17T02:19:43.727Z,28.77
2018-05-17T02:22:11.183Z,31.13
2018-05-17T02:24:38.641Z,32.53
2018-05-17T02:27:06.096Z,35.20
2018-05-17T02:29:33.578Z,37.63
2018-05-17T02:32:01.015Z,40.07
2018-05-17T02:34:28.476Z,43.27
2018-05-17T02:36:55.928Z,42.43
2018-05-17T02:39:23.390Z,41.00
2018-05-17T02:41:50.830Z,40.77
2018-05-17T02:44:18.301Z,41.30
2018-05-17T02:46:45.758Z,41.40
2018-05-17T02:49:13.314Z,42.20
2018-05-17T02:51:40.670Z,43.27
2018-05-17T02:54:08.138Z,42.37
2018-05-17T02:56:35.585Z,44.63
2018-05-17T02:59:03.043Z,45.33
2018-05-17T03:01:30.500Z,44.83
2018-05-17T03:03:57.954Z,45.43
2018-05-17T03:06:25.410Z,45.97
2018-05-17T03:08:52.873Z,45.87
2018-05-17T03:11:20.342Z,46.60
2018-05-17T03:13:47.820Z,46.37
2018-05-17T03:16:16.037Z,46.63
2018-05-17T03:18:43.503Z,47.47
2018-05-17T03:21:10.971Z,50.53
2018-05-17T03:23:38.427Z,46.30
2018-05-17T03:26:05.885Z,47.60
2018-05-17T03:28:33.341Z,49.83
2018-05-17T03:31:00.797Z,52.90
2018-05-17T03:33:28.257Z,52.10
2018-05-17T03:35:55.713Z,52.90
2018-05-17T03:38:23.171Z,50.00
2018-05-17T03:40:50.627Z,51.77
2018-05-17T03:43:18.068Z,50.80
2018-05-17T03:45:45.546Z,49.73
2018-05-17T03:48:13.001Z,49.23
2018-05-17T03:50:40.470Z,50.80
2018-05-17T03:53:07.910Z,50.70
2018-05-17T03:55:35.372Z,49.87
2018-05-17T03:58:02.826Z,48.77
2018-05-17T04:00:42.981Z,49.00
2018-05-17T04:03:22.230Z,46.10
2018-05-17T04:06:01.670Z,44.57
2018-05-17T04:08:29.142Z,44.17
2018-05-17T04:10:56.577Z,43.93
2018-05-17T04:13:24.022Z,44.40
2018-05-17T04:15:51.481Z,43.00
2018-05-17T04:18:18.923Z,39.63
2018-05-17T04:20:46.394Z,41.37
2018-05-17T04:23:13.850Z,41.47
2018-05-17T04:25:41.322Z,40.33
2018-05-17T04:28:08.750Z,39.17
2018-05-17T04:30:36.234Z,37.13
2018-05-17T04:33:03.678Z,37.73
2018-05-17T04:35:31.127Z,38.93
2018-05-17T04:37:58.574Z,39.10
2018-05-17T04:40:26.092Z,37.57
2018-05-17T04:42:53.508Z,35.40
2018-05-17T04:45:20.964Z,36.63
2018-05-17T04:47:48.420Z,36.57
2018-05-17T04:50:15.891Z,35.53
2018-05-17T04:52:43.323Z,33.90
2018-05-17T04:55:10.777Z,35.33
2018-05-17T04:57:38.223Z,34.77
2018-05-17T05:00:05.695Z,33.07
2018-05-17T05:02:33.195Z,32.63
2018-05-17T05:05:00.680Z,31.67
2018-05-17T05:07:28.909Z,32.70
2018-05-17T05:09:56.362Z,31.87
2018-05-17T05:12:23.821Z,30.87
2018-05-17T05:14:51.267Z,31.20
2018-05-17T05:17:18.733Z,30.53
2018-05-17T05:19:46.179Z,31.83
2018-05-17T05:22:13.634Z,31.10
2018-05-17T05:24:41.096Z,32.23
2018-05-17T05:27:08.567Z,32.13
2018-05-17T05:29:36.043Z,33.03
2018-05-17T05:32:03.485Z,33.70
2018-05-17T05:34:30.938Z,34.23
2018-05-17T05:36:58.398Z,32.37
2018-05-17T05:39:25.857Z,31.50
2018-05-17T05:41:53.332Z,30.60
2018-05-17T05:44:20.773Z,33.47
2018-05-17T05:46:48.236Z,34.13
2018-05-17T05:49:15.724Z,33.10
2018-05-17T05:51:43.183Z,33.87
2018-05-17T05:54:11.398Z,34.70
2018-05-17T05:56:38.871Z,33.87
2018-05-17T05:59:06.310Z,32.47
2018-05-17T06:01:33.761Z,35.37
2018-05-17T06:04:01.229Z,32.80
2018-05-17T06:06:28.683Z,33.30
2018-05-17T06:08:56.145Z,34.00
2018-05-17T06:11:23.605Z,35.93
2018-05-17T06:13:51.065Z,33.90
2018-05-17T06:16:18.519Z,35.50
2018-05-17T06:18:45.991Z,34.33
2018-05-17T06:21:13.441Z,34.20
2018-05-17T06:23:40.895Z,34.50
2018-05-17T06:26:08.346Z,35.50
2018-05-17T06:28:35.801Z,33.17
2018-05-17T06:31:03.249Z,34.10
2018-05-17T06:33:30.722Z,33.63
2018-05-17T06:35:58.174Z,34.17
2018-05-17T06:38:25.635Z,36.57
2018-05-17T06:40:53.101Z,34.37
2018-05-17T06:43:20.549Z,34.00
2018-05-17T06:45:48.008Z,34.50
2018-05-17T06:48:15.461Z,34.77
2018-05-17T06:50:42.924Z,33.97
2018-05-17T06:53:10.376Z,34.70
2018-05-17T06:55:37.813Z,35.03
2018-05-17T06:58:05.291Z,37.60
2018-05-17T07:00:32.790Z,36.17
2018-05-17T07:03:00.202Z,35.80
2018-05-17T07:05:27.669Z,33.60
2018-05-17T07:07:55.133Z,33.83
2018-05-17T07:10:22.608Z,33.53
2018-05-17T07:12:50.042Z,33.33
2018-05-17T07:15:17.492Z,31.80
2018-05-17T07:17:44.958Z,32.53
2018-05-17T07:20:12.396Z,32.97
2018-05-17T07:22:39.853Z,32.57
2018-05-17T07:25:07.303Z,31.77
2018-05-17T07:27:34.783Z,31.30
2018-05-17T07:30:02.227Z,30.53
2018-05-17T07:32:29.690Z,26.90
2018-05-17T07:34:57.122Z,29.20
2018-05-17T07:37:24.588Z,31.43
2018-05-17T07:39:52.026Z,32.73
2018-05-17T07:42:20.234Z,29.47
2018-05-17T07:44:47.686Z,28.13
2018-05-17T07:47:15.224Z,25.80
2018-05-17T07:49:42.603Z,25.73
2018-05-17T07:52:10.153Z,26.20
2018-05-17T07:54:37.519Z,29.37
2018-05-17T07:57:04.987Z,25.97
2018-05-17T07:59:32.441Z,27.27
2018-05-17T08:01:59.881Z,25.30
2018-05-17T08:04:27.330Z,27.27
2018-05-17T08:06:54.789Z,24.73
2018-05-17T08:09:22.332Z,25.53
2018-05-17T08:11:49.693Z,25.27
2018-05-17T08:14:17.155Z,24.50
2018-05-17T08:16:44.594Z,25.27
2018-05-17T08:19:12.058Z,25.10
2018-05-17T08:21:40.262Z,24.90
2018-05-17T08:24:07.722Z,23.93
2018-05-17T08:26:35.171Z,24.20
2018-05-17T08:29:02.706Z,24.40
2018-05-17T08:31:30.083Z,24.47
2018-05-17T08:33:57.541Z,23.70
2018-05-17T08:36:25.125Z,23.17
2018-05-17T08:38:52.462Z,23.73
2018-05-17T08:41:19.915Z,24.33
2018-05-17T08:43:47.370Z,23.17
2018-05-17T08:46:14.814Z,24.33
2018-05-17T08:48:42.285Z,24.90
2018-05-17T08:51:09.731Z,23.50
2018-05-17T08:53:37.182Z,23.83
2018-05-17T08:56:04.642Z,22.13
2018-05-17T08:58:32.098Z,24.30
2018-05-17T09:00:59.554Z,21.90
2018-05-17T09:03:27.018Z,24.33
2018-05-17T09:05:54.483Z,23.10
2018-05-17T09:08:21.909Z,23.60
2018-05-17T09:10:50.126Z,23.37
2018-05-17T09:13:17.569Z,22.63
2018-05-17T09:15:45.029Z,21.70
2018-05-17T09:18:12.467Z,21.10
2018-05-17T09:20:39.926Z,20.73
2018-05-17T09:23:07.402Z,21.73
2018-05-17T09:25:34.866Z,21.20
2018-05-17T09:28:02.311Z,20.67
2018-05-17T09:30:29.765Z,20.77
2018-05-17T09:32:57.235Z,18.73
2018-05-17T09:35:24.674Z,19.17
2018-05-17T09:37:52.142Z,20.30
2018-05-17T09:40:19.598Z,19.90
2018-05-17T09:42:47.025Z,24.10
2018-05-17T09:45:15.250Z,19.43
2018-05-17T09:47:42.777Z,20.47
2018-05-17T09:50:10.153Z,24.77
2018-05-17T09:52:37.599Z,34.90
2018-05-17T09:55:05.117Z,18.97
2018-05-17T09:57:32.499Z,19.57
2018-05-17T09:59:59.969Z,19.60
2018-05-17T10:02:27.427Z,17.20
2018-05-17T10:04:54.887Z,18.17
2018-05-17T10:07:22.344Z,19.40
2018-05-17T10:09:49.798Z,18.97
2018-05-17T10:12:17.259Z,19.67
2018-05-17T10:14:44.756Z,18.93
2018-05-17T10:17:12.176Z,20.20
2018-05-17T10:19:39.644Z,19.87
2018-05-17T10:22:07.113Z,19.27
2018-05-17T10:24:34.568Z,19.13
2018-05-17T10:27:02.027Z,18.43
2018-05-17T10:29:29.588Z,19.17
2018-05-17T10:31:56.964Z,20.47
2018-05-17T10:34:24.421Z,19.63
2018-05-17T10:36:51.880Z,19.73
2018-05-17T10:39:19.337Z,20.80
2018-05-17T10:41:46.806Z,19.10
2018-05-17T10:44:14.274Z,20.80
2018-05-17T10:46:42.490Z,19.80
2018-05-17T10:49:09.935Z,19.10
2018-05-17T10:51:37.394Z,17.40
2018-05-17T10:54:04.850Z,18.73
2018-05-17T10:56:32.310Z,17.03
2018-05-17T10:58:59.754Z,17.97
2018-05-17T11:01:27.208Z,20.73
2018-05-17T11:03:55.440Z,21.73
2018-05-17T11:06:22.890Z,21.13
2018-05-17T11:08:50.365Z,21.80
2018-05-17T11:11:17.818Z,22.33
2018-05-17T11:13:45.324Z,22.73
2018-05-17T11:16:12.794Z,22.03
2018-05-17T11:18:40.233Z,22.73
2018-05-17T11:21:07.694Z,23.83
2018-05-17T11:23:35.147Z,23.97
2018-05-17T11:26:02.697Z,23.13
2018-05-17T11:28:30.838Z,23.10
2018-05-17T11:30:58.324Z,22.53
2018-05-17T11:33:25.778Z,21.90
2018-05-17T11:35:53.234Z,20.90
2018-05-17T11:38:20.694Z,21.73
2018-05-17T11:40:48.934Z,22.30
2018-05-17T11:43:16.385Z,19.83
2018-05-17T11:45:43.842Z,19.87
2018-05-17T11:48:11.303Z,18.23
2018-05-17T11:50:38.812Z,19.90
2018-05-17T11:53:06.230Z,18.90
2018-05-17T11:55:33.700Z,17.60
2018-05-17T11:58:01.154Z,17.83
2018-05-17T12:00:28.631Z,18.43
2018-05-17T12:02:56.834Z,18.27
2018-05-17T12:05:24.284Z,19.37
2018-05-17T12:07:51.734Z,19.00
2018-05-17T12:10:19.187Z,18.50
2018-05-17T12:12:46.648Z,17.97
2018-05-17T12:15:14.095Z,18.17
2018-05-17T12:17:42.326Z,18.53
2018-05-17T12:20:09.780Z,18.30
2018-05-17T12:22:37.238Z,19.57
2018-05-17T12:25:04.690Z,18.17
2018-05-17T12:27:32.140Z,17.93
2018-05-17T12:29:59.595Z,18.00
2018-05-17T12:32:27.057Z,16.80
2018-05-17T12:34:54.513Z,16.97
2018-05-17T12:37:21.972Z,17.93
2018-05-17T12:39:49.402Z,16.93
2018-05-17T12:42:16.891Z,16.93
2018-05-17T12:44:44.347Z,17.90
2018-05-17T12:47:11.823Z,18.60
2018-05-17T12:49:39.270Z,18.83
2018-05-17T12:52:06.735Z,17.77
2018-05-17T12:54:34.185Z,18.67
2018-05-17T12:57:01.660Z,18.57
2018-05-17T12:59:29.115Z,17.77
2018-05-17T13:01:56.566Z,18.63
2018-05-17T13:04:24.021Z,19.37
2018-05-17T13:06:51.482Z,18.83
2018-05-17T13:09:18.931Z,17.33
2018-05-17T13:11:46.390Z,17.67
2018-05-17T13:14:13.851Z,18.33
2018-05-17T13:16:41.350Z,18.57
2018-05-17T13:19:08.797Z,16.67
2018-05-17T13:21:37.017Z,15.30
2018-05-17T13:24:04.474Z,13.30
2018-05-17T13:26:31.935Z,15.60
2018-05-17T13:28:59.397Z,15.57
2018-05-17T13:31:26.849Z,11.17
2018-05-17T13:33:54.362Z,11.20
2018-05-17T13:36:21.809Z,9.70
2018-05-17T13:38:50.063Z,10.50
2018-05-17T13:41:17.517Z,10.17
2018-05-17T13:43:44.982Z,9.33
2018-05-17T13:46:12.430Z,11.63
2018-05-17T13:48:39.889Z,12.47
2018-05-17T13:51:07.355Z,13.17
2018-05-17T13:53:34.833Z,12.30
2018-05-17T13:56:02.298Z,13.17
2018-05-17T13:58:29.758Z,12.70
2018-05-17T14:00:57.212Z,13.87
2018-05-17T14:03:25.425Z,15.67
2018-05-17T14:05:52.886Z,16.10
2018-05-17T14:08:20.351Z,16.63
2018-05-17T14:10:47.798Z,17.70
2018-05-17T14:13:15.253Z,18.97
2018-05-17T14:15:42.708Z,21.27
2018-05-17T14:18:10.165Z,20.90
2018-05-17T14:20:37.622Z,20.47
2018-05-17T14:23:05.162Z,20.50
2018-05-17T14:25:32.540Z,21.70
2018-05-17T14:27:59.997Z,21.03
2018-05-17T14:30:27.452Z,20.80
2018-05-17T14:32:54.911Z,17.97
2018-05-17T14:35:22.376Z,18.90
2018-05-17T14:37:49.841Z,16.87
2018-05-17T14:40:17.292Z,16.63
2018-05-17T14:42:44.846Z,15.07
2018-05-17T14:45:12.318Z,15.40
2018-05-17T14:47:39.772Z,15.40
2018-05-17T14:50:07.232Z,14.17
2018-05-17T14:52:34.702Z,14.50
2018-05-17T14:55:02.173Z,13.87
2018-05-17T14:57:29.635Z,12.87
2018-05-17T14:59:57.069Z,13.90
2018-05-17T15:02:24.534Z,13.47
2018-05-17T15:04:51.995Z,12.60
2018-05-17T15:07:19.442Z,12.60
2018-05-17T15:09:46.922Z,13.07
2018-05-17T15:12:15.144Z,12.87
2018-05-17T15:14:42.627Z,12.63
2018-05-17T15:17:10.066Z,12.40
2018-05-17T15:19:37.538Z,11.33
2018-05-17T15:22:04.981Z,12.27
2018-05-17T15:24:32.529Z,10.17
2018-05-17T15:26:59.901Z,9.50
2018-05-17T15:29:27.366Z,9.53
2018-05-17T15:31:54.806Z,10.50
2018-05-17T15:34:22.277Z,10.00
2018-05-17T15:36:49.736Z,9.57
2018-05-17T15:39:17.206Z,11.50
2018-05-17T15:41:44.709Z,9.53
2018-05-17T15:44:12.137Z,9.63
2018-05-17T15:46:39.593Z,10.67
2018-05-17T15:49:07.035Z,8.90
2018-05-17T15:51:34.492Z,9.27
2018-05-17T15:54:01.961Z,9.67
2018-05-17T15:56:29.404Z,7.57
2018-05-17T15:58:56.873Z,7.80
2018-05-17T16:01:24.335Z,8.30
2018-05-17T16:03:51.777Z,8.30
2018-05-17T16:06:19.234Z,9.30
2018-05-17T16:08:46.700Z,8.90
2018-05-17T16:11:14.162Z,8.90
2018-05-17T16:13:41.625Z,8.47
2018-05-17T16:16:09.074Z,7.83
2018-05-17T16:18:36.530Z,7.90
2018-05-17T16:21:03.997Z,8.40
2018-05-17T16:23:31.449Z,7.70
2018-05-17T16:25:58.911Z,7.83
2018-05-17T16:28:27.129Z,7.87
2018-05-17T16:30:54.598Z,7.87
2018-05-17T16:33:22.066Z,8.70
2018-05-17T16:35:49.538Z,8.93
2018-05-17T16:38:16.991Z,8.77
2018-05-17T16:40:44.446Z,8.67
2018-05-17T16:43:11.901Z,9.03
2018-05-17T16:45:39.374Z,8.57
2018-05-17T16:48:06.879Z,8.93
2018-05-17T16:50:34.274Z,9.80
2018-05-17T16:53:01.802Z,9.03
2018-05-17T16:55:29.212Z,8.50
2018-05-17T16:57:56.658Z,9.07
2018-05-17T17:00:24.121Z,9.20
2018-05-17T17:02:52.371Z,8.53
2018-05-17T17:05:19.826Z,9.30
2018-05-17T17:07:47.283Z,9.03
2018-05-17T17:10:14.725Z,8.63
2018-05-17T17:12:42.178Z,8.40
2018-05-17T17:15:09.630Z,8.30
2018-05-17T17:17:37.139Z,7.27
2018-05-17T17:20:04.603Z,7.13
2018-05-17T17:22:32.060Z,7.13
2018-05-17T17:25:00.294Z,7.23
2018-05-17T17:27:27.756Z,6.20
2018-05-17T17:29:55.219Z,5.80
2018-05-17T17:32:22.728Z,6.73
2018-05-17T17:34:50.202Z,5.77
2018-05-17T17:37:17.661Z,6.43
2018-05-17T17:39:45.135Z,5.53
2018-05-17T17:42:12.601Z,5.13
2018-05-17T17:44:40.058Z,4.90
2018-05-17T17:47:07.526Z,4.90
2018-05-17T17:49:35.004Z,7.30
2018-05-17T17:52:02.458Z,5.67
2018-05-17T17:54:29.906Z,6.37
2018-05-17T17:56:57.361Z,5.10
2018-05-17T17:59:24.830Z,4.60
2018-05-17T18:01:52.294Z,4.03
2018-05-17T18:04:19.753Z,4.40
2018-05-17T18:06:47.927Z,4.97
2018-05-17T18:09:15.367Z,4.43
2018-05-17T18:11:42.822Z,4.40
2018-05-17T18:14:10.281Z,5.60
2018-05-17T18:16:37.738Z,4.87
2018-05-17T18:19:05.199Z,5.13
2018-05-17T18:21:32.665Z,4.53
2018-05-17T18:24:00.177Z,5.90
2018-05-17T18:26:27.599Z,4.60
2018-05-17T18:28:55.838Z,4.73
2018-05-17T18:31:23.306Z,4.27
2018-05-17T18:33:50.823Z,5.50
2018-05-17T18:36:18.218Z,4.00
2018-05-17T18:38:45.675Z,9.00
2018-05-17T18:41:13.134Z,4.63
2018-05-17T18:43:40.590Z,4.40
2018-05-17T18:46:08.114Z,5.70
2018-05-17T18:48:35.620Z,7.07
2018-05-17T18:51:03.092Z,4.37
2018-05-17T18:53:30.527Z,3.73
2018-05-17T18:55:57.996Z,3.77
2018-05-17T18:58:25.421Z,4.83
2018-05-17T19:00:52.868Z,5.23
2018-05-17T19:03:20.327Z,4.93
2018-05-17T19:05:47.798Z,3.73
2018-05-17T19:08:15.266Z,5.53
2018-05-17T19:10:42.711Z,4.00
2018-05-17T19:13:10.157Z,4.40
2018-05-17T19:15:37.608Z,4.40
2018-05-17T19:18:05.063Z,4.50
2018-05-17T19:20:32.523Z,4.47
2018-05-17T19:22:59.990Z,4.87
2018-05-17T19:25:27.433Z,4.93
2018-05-17T19:27:54.899Z,4.17
2018-05-17T19:30:22.378Z,5.00
2018-05-17T19:32:49.830Z,4.57
2018-05-17T19:35:17.278Z,5.00
2018-05-17T19:37:44.732Z,5.70
2018-05-17T19:40:12.185Z,4.23
2018-05-17T19:42:39.638Z,5.23
2018-05-17T19:45:07.108Z,5.03
2018-05-17T19:47:34.562Z,4.27
2018-05-17T19:50:02.018Z,4.97
2018-05-17T19:52:29.479Z,4.67
2018-05-17T19:54:56.917Z,5.13
2018-05-17T19:57:24.375Z,5.17
2018-05-17T19:59:51.834Z,4.73
2018-05-17T20:02:19.296Z,5.07
2018-05-17T20:04:46.737Z,4.93
2018-05-17T20:07:14.189Z,4.33
2018-05-17T20:09:41.656Z,4.27
2018-05-17T20:12:09.115Z,4.47
2018-05-17T20:14:36.565Z,4.63
2018-05-17T20:17:04.019Z,4.70
2018-05-17T20:19:31.475Z,5.13
2018-05-17T20:21:58.923Z,4.33
2018-05-17T20:24:26.390Z,4.87
2018-05-17T20:26:53.878Z,4.43
2018-05-17T20:29:21.397Z,4.87
2018-05-17T20:31:48.771Z,4.70
2018-05-17T20:34:16.248Z,4.97
2018-05-17T20:36:43.722Z,4.90
2018-05-17T20:39:11.175Z,4.80
2018-05-17T20:41:38.614Z,7.53
2018-05-17T20:44:06.069Z,4.50
2018-05-17T20:46:33.509Z,4.57
2018-05-17T20:49:00.999Z,4.83
2018-05-17T20:51:28.442Z,5.90
2018-05-17T20:53:55.902Z,5.47
2018-05-17T20:56:23.345Z,4.20
2018-05-17T20:58:50.808Z,4.60
2018-05-17T21:01:18.241Z,5.53
2018-05-17T21:03:45.708Z,4.77
2018-05-17T21:06:13.158Z,5.20
2018-05-17T21:08:40.610Z,5.20
2018-05-17T21:11:08.052Z,4.60
2018-05-17T21:13:36.272Z,5.27
2018-05-17T21:16:03.726Z,5.50
2018-05-17T21:18:31.175Z,4.70
2018-05-17T21:20:59.437Z,8.60
2018-05-17T21:23:26.870Z,4.77
2018-05-17T21:25:54.302Z,4.83
2018-05-17T21:28:21.761Z,4.60
2018-05-17T21:30:49.199Z,4.43
2018-05-17T21:33:16.646Z,4.97
2018-05-17T21:35:44.106Z,4.83
2018-05-17T21:38:11.544Z,4.33
2018-05-17T21:40:39.014Z,4.93
2018-05-17T21:43:06.470Z,5.13
2018-05-17T21:45:33.913Z,7.43
2018-05-17T21:48:01.358Z,6.07
2018-05-17T21:50:28.819Z,5.43
2018-05-17T21:52:56.261Z,5.13
2018-05-17T21:55:24.550Z,6.10
2018-05-17T21:57:51.933Z,6.40
2018-05-17T22:00:19.373Z,5.90
2018-05-17T22:02:46.818Z,6.03
2018-05-17T22:05:14.280Z,6.37
2018-05-17T22:07:41.736Z,5.07
2018-05-17T22:10:09.185Z,5.13
2018-05-17T22:12:37.403Z,5.17
2018-05-17T22:15:04.845Z,5.37
2018-05-17T22:17:32.305Z,5.40
2018-05-17T22:19:59.766Z,6.20
2018-05-17T22:22:27.215Z,7.47
2018-05-17T22:24:54.659Z,6.47
2018-05-17T22:27:22.119Z,5.63
2018-05-17T22:29:49.573Z,6.63
2018-05-17T22:32:17.018Z,5.83
2018-05-17T22:34:44.477Z,5.90
2018-05-17T22:37:11.942Z,6.57
2018-05-17T22:39:39.402Z,6.10
2018-05-17T22:42:06.856Z,4.70
2018-05-17T22:44:34.313Z,4.80
2018-05-17T22:47:01.791Z,6.87
2018-05-17T22:49:29.227Z,6.97
2018-05-17T22:51:56.746Z,6.13
2018-05-17T22:54:24.127Z,5.90
2018-05-17T22:57:03.594Z,5.60
2018-05-17T22:59:31.046Z,5.60
2018-05-17T23:01:58.497Z,5.87
2018-05-17T23:04:25.958Z,6.57
2018-05-17T23:06:53.410Z,5.77
2018-05-17T23:09:20.865Z,5.40
2018-05-17T23:11:48.333Z,6.30
2018-05-17T23:14:15.775Z,5.77
2018-05-17T23:16:43.221Z,5.07
2018-05-17T23:19:11.421Z,5.37
2018-05-17T23:21:38.894Z,5.33
2018-05-17T23:24:06.333Z,6.33
2018-05-17T23:26:33.794Z,5.67
2018-05-17T23:29:01.251Z,6.30
2018-05-17T23:31:28.710Z,6.10
2018-05-17T23:33:56.137Z,6.03
2018-05-17T23:36:23.598Z,6.10
2018-05-17T23:38:51.793Z,5.57
2018-05-17T23:41:30.992Z,6.40
2018-05-17T23:43:58.433Z,5.50
2018-05-17T23:46:25.890Z,5.10
2018-05-17T23:48:53.347Z,6.07
2018-05-17T23:51:20.785Z,5.37
2018-05-17T23:53:48.225Z,5.80
2018-05-17T23:56:15.747Z,5.60
2018-05-17T23:58:43.127Z,5.40
